createdAt,value
2023-08-15T00:09:40.226Z,3.63
2023-08-15T00:19:44.774Z,3.30
2023-08-15T00:29:48.098Z,3.45
2023-08-15T00:39:52.763Z,3.63
2023-08-15T00:49:56.984Z,3.42
2023-08-15T01:00:01.645Z,3.28
2023-08-15T01:10:05.091Z,3.28
2023-08-15T01:20:13.350Z,3.63
2023-08-15T01:30:19.668Z,3.13
2023-08-15T01:40:24.333Z,3.10
2023-08-15T01:50:29.474Z,3.25
2023-08-15T02:00:32.655Z,3.03
2023-08-15T02:10:37.217Z,2.85
2023-08-15T02:20:43.090Z,3.05
2023-08-15T02:30:47.765Z,3.40
2023-08-15T02:40:50.908Z,3.33
2023-08-15T02:50:56.126Z,3.10
2023-08-15T03:00:59.309Z,3.35
2023-08-15T03:11:03.909Z,3.30
2023-08-15T03:21:09.294Z,3.47
2023-08-15T03:31:14.179Z,3.88
2023-08-15T03:41:28.758Z,3.80
2023-08-15T03:51:46.495Z,3.63
2023-08-15T04:01:51.055Z,3.50
2023-08-15T04:11:55.716Z,4.10
2023-08-15T04:21:59.264Z,4.28
2023-08-15T04:32:04.092Z,3.78
2023-08-15T04:42:07.702Z,4.63
2023-08-15T04:52:15.568Z,4.07
2023-08-15T05:02:19.332Z,4.25
2023-08-15T05:12:24.026Z,4.22
2023-08-15T05:22:27.188Z,4.35
2023-08-15T05:32:31.886Z,4.25
2023-08-15T05:42:35.167Z,4.78
2023-08-15T05:52:39.696Z,4.75
2023-08-15T06:02:43.112Z,4.35
2023-08-15T06:12:47.661Z,4.18
2023-08-15T06:22:50.882Z,4.22
2023-08-15T06:32:55.489Z,4.05
2023-08-15T06:42:58.648Z,4.35
2023-08-15T06:53:04.307Z,4.05
2023-08-15T07:03:08.549Z,4.18
2023-08-15T07:13:13.328Z,3.85
2023-08-15T07:23:16.503Z,4.45
2023-08-15T07:33:21.049Z,4.13
2023-08-15T07:43:24.957Z,3.80
2023-08-15T07:53:29.558Z,3.60
2023-08-15T08:03:34.276Z,3.20
2023-08-15T08:13:38.834Z,3.30
2023-08-15T08:23:42.106Z,3.10
2023-08-15T08:33:46.660Z,2.88
2023-08-15T08:43:50.135Z,3.65
2023-08-15T08:53:54.789Z,2.97
2023-08-15T09:03:58.558Z,2.42
2023-08-15T09:14:04.558Z,2.55
2023-08-15T09:24:08.693Z,2.67
2023-08-15T09:34:13.482Z,2.63
2023-08-15T09:44:31.610Z,2.90
2023-08-15T09:54:37.258Z,2.88
2023-08-15T10:04:41.000Z,2.85
2023-08-15T10:14:46.509Z,3.10
2023-08-15T10:24:51.046Z,2.63
2023-08-15T10:35:02.192Z,2.47
2023-08-15T10:45:15.749Z,2.85
2023-08-15T10:55:20.564Z,2.42
2023-08-15T11:05:23.936Z,2.30
2023-08-15T11:15:28.592Z,2.20
2023-08-15T11:25:32.033Z,2.15
2023-08-15T11:35:37.388Z,2.28
2023-08-15T11:45:44.569Z,2.33
2023-08-15T11:55:49.720Z,2.00
2023-08-15T12:05:55.546Z,1.77
2023-08-15T12:16:01.604Z,1.98
2023-08-15T12:26:04.972Z,2.25
2023-08-15T12:36:09.831Z,2.38
2023-08-15T12:46:13.199Z,2.50
2023-08-15T12:56:18.092Z,2.40
2023-08-15T13:06:21.441Z,2.30
2023-08-15T13:16:26.267Z,2.45
2023-08-15T13:26:29.454Z,2.67
2023-08-15T13:36:33.995Z,2.30
2023-08-15T13:46:37.198Z,2.75
2023-08-15T13:56:41.734Z,2.30
2023-08-15T14:06:45.429Z,2.08
2023-08-15T14:16:51.806Z,2.25
2023-08-15T14:26:55.008Z,2.47
2023-08-15T14:36:59.507Z,2.20
2023-08-15T14:47:02.870Z,2.40
2023-08-15T14:57:07.544Z,2.50
2023-08-15T15:07:10.728Z,2.20
2023-08-15T15:17:15.237Z,1.90
2023-08-15T15:27:18.428Z,1.80
2023-08-15T15:37:24.091Z,1.67
2023-08-15T15:47:27.469Z,2.63
2023-08-15T15:57:32.081Z,2.20
2023-08-15T16:07:35.239Z,2.28
2023-08-15T16:17:39.731Z,2.40
2023-08-15T16:27:42.932Z,2.20
2023-08-15T16:37:47.497Z,2.25
2023-08-15T16:47:50.688Z,1.92
2023-08-15T16:57:55.324Z,2.20
2023-08-15T17:07:58.504Z,2.10
2023-08-15T17:18:03.135Z,2.50
2023-08-15T17:28:06.968Z,2.30
2023-08-15T17:38:11.631Z,2.50
2023-08-15T17:48:14.915Z,2.42
2023-08-15T17:58:19.493Z,3.00
2023-08-15T18:08:22.664Z,2.38
2023-08-15T18:18:27.269Z,2.33
2023-08-15T18:28:30.505Z,2.95
2023-08-15T18:38:36.296Z,3.03
2023-08-15T18:48:39.628Z,2.75
2023-08-15T18:58:47.276Z,2.72
2023-08-15T19:08:50.472Z,2.92
2023-08-15T19:18:55.162Z,2.90
2023-08-15T19:28:58.370Z,3.10
2023-08-15T19:39:03.714Z,2.97
2023-08-15T19:49:07.248Z,3.00
2023-08-15T19:59:11.886Z,2.40
2023-08-15T20:09:15.260Z,2.85
2023-08-15T20:19:20.731Z,3.25
2023-08-15T20:29:23.941Z,2.95
2023-08-15T20:39:28.584Z,3.15
2023-08-15T20:49:31.749Z,3.25
2023-08-15T20:59:36.327Z,3.70
2023-08-15T21:09:39.498Z,3.30
2023-08-15T21:19:44.075Z,3.17
2023-08-15T21:29:47.424Z,3.05
2023-08-15T21:39:51.985Z,3.17
2023-08-15T21:49:55.115Z,2.95
2023-08-15T21:59:59.664Z,3.22
2023-08-15T22:10:02.894Z,3.33
2023-08-15T22:20:09.636Z,3.25
2023-08-15T22:30:13.919Z,3.20
2023-08-15T22:40:18.671Z,3.75
2023-08-15T22:50:21.887Z,3.58
2023-08-15T23:00:26.534Z,3.63
2023-08-15T23:10:29.665Z,3.55
2023-08-15T23:20:34.192Z,3.33
2023-08-15T23:30:38.117Z,4.10
2023-08-15T23:40:43.157Z,3.50
2023-08-15T23:50:47.223Z,4.15
